Time;durP1;ratioP1;P1;durP2;ratioP2;P2;SDS_P1;SDS_P2;PMS_P1;PMS_P2;Temp;Humidity;BMP_temperature;BMP_pressure;BME280_temperature;BME280_humidity;BME280_pressure;Samples;Min_cycle;Max_cycle;Signal;HPM_P1;HPM_P2
2023/09/27 00:01:04;;;;;;;20.97;4.30;;;;;;;18.56;81.32;94966.69;5173730;27;20190;-45
2023/09/27 00:03:32;;;;;;;10.60;4.00;;;;;;;18.55;81.44;94956.53;5154668;27;20206;-47
2023/09/27 00:05:59;;;;;;;8.83;4.23;;;;;;;18.52;81.83;94968.06;5152511;27;20203;-45
2023/09/27 00:08:26;;;;;;;11.20;4.23;;;;;;;18.50;82.20;94966.63;5157855;27;20620;-44
2023/09/27 00:10:52;;;;;;;15.40;4.17;;;;;;;18.49;81.86;94963.25;5173131;27;20222;-46
2023/09/27 00:13:19;;;;;;;11.97;4.60;;;;;;;18.50;82.06;94970.00;5173273;27;20198;-46
2023/09/27 00:15:46;;;;;;;9.20;3.80;;;;;;;18.46;82.25;94966.19;5172509;27;20190;-45
2023/09/27 00:18:14;;;;;;;13.50;4.50;;;;;;;18.45;82.55;94959.41;5173256;27;20205;-46
2023/09/27 00:20:42;;;;;;;6.27;3.77;;;;;;;18.44;82.62;94960.38;5169654;27;20515;-46
2023/09/27 00:23:09;;;;;;;7.90;4.20;;;;;;;18.42;82.82;94948.59;5160331;27;20183;-44
2023/09/27 00:25:36;;;;;;;9.73;4.10;;;;;;;18.42;82.87;94953.78;5151791;27;20194;-46
2023/09/27 00:28:03;;;;;;;9.17;4.53;;;;;;;18.42;82.84;94957.16;5152083;27;20219;-44
2023/09/27 00:30:30;;;;;;;9.43;3.97;;;;;;;18.39;83.11;94951.53;5151949;27;20298;-45
2023/09/27 00:32:57;;;;;;;13.40;4.63;;;;;;;18.38;82.94;94949.94;5169750;27;20194;-44
2023/09/27 00:35:23;;;;;;;5.27;3.60;;;;;;;18.40;82.84;94946.19;5152250;27;20199;-44
2023/09/27 00:37:52;;;;;;;9.00;4.20;;;;;;;18.42;82.68;94943.41;5151840;27;20762;-43
2023/09/27 00:40:21;;;;;;;5.30;4.03;;;;;;;18.41;82.65;94942.59;5152967;27;20219;-45
2023/09/27 00:42:48;;;;;;;8.93;4.13;;;;;;;18.38;82.96;94944.75;5152107;27;20194;-45
2023/09/27 00:45:15;;;;;;;9.10;3.90;;;;;;;18.37;82.99;94943.94;5151312;27;20535;-47
2023/09/27 00:47:42;;;;;;;9.83;3.83;;;;;;;18.40;82.96;94943.59;5151741;27;20184;-45
2023/09/27 00:50:10;;;;;;;5.77;3.73;;;;;;;18.38;82.79;94936.97;5151597;27;20644;-45
2023/09/27 00:52:39;;;;;;;8.80;4.60;;;;;;;18.31;82.77;94944.69;5165206;27;20202;-43
2023/09/27 00:55:11;;;;;;;8.00;3.93;;;;;;;18.38;83.05;94957.69;5172360;27;20183;-44
2023/09/27 00:57:38;;;;;;;8.50;4.50;;;;;;;18.34;83.33;94949.47;5170669;27;20229;-46
2023/09/27 01:00:10;;;;;;;10.93;4.80;;;;;;;18.28;83.91;94950.19;5169463;27;20193;-43
2023/09/27 01:02:37;;;;;;;5.27;4.00;;;;;;;18.26;83.88;94952.97;5151700;27;20372;-44
2023/09/27 01:05:04;;;;;;;13.57;4.07;;;;;;;18.22;84.05;94949.13;5151628;27;20191;-44
2023/09/27 01:07:31;;;;;;;12.70;4.30;;;;;;;18.18;84.04;94954.84;5135544;27;20196;-45
2023/09/27 01:09:58;;;;;;;11.90;4.83;;;;;;;18.09;84.49;94953.31;5130675;27;20676;-45
2023/09/27 01:12:26;;;;;;;13.70;4.97;;;;;;;18.01;84.85;94949.03;5136201;27;20180;-44
2023/09/27 01:14:53;;;;;;;10.57;4.40;;;;;;;18.02;84.80;94948.06;5151385;27;20197;-45
2023/09/27 01:17:20;;;;;;;11.17;4.70;;;;;;;17.98;84.81;94952.78;5151253;27;20210;-44
2023/09/27 01:19:47;;;;;;;11.00;4.63;;;;;;;17.93;85.54;94949.91;5151528;27;20183;-44
2023/09/27 01:22:14;;;;;;;10.77;4.10;;;;;;;17.91;85.41;94954.44;5155254;27;20539;-46
2023/09/27 01:24:44;;;;;;;20.30;5.27;;;;;;;17.93;85.49;94946.53;5172056;27;20701;-43
2023/09/27 01:27:11;;;;;;;12.43;4.63;;;;;;;17.92;85.42;94953.50;5171830;27;20226;-44
2023/09/27 01:29:38;;;;;;;8.27;4.37;;;;;;;17.90;85.53;94952.03;5171846;27;20663;-43
2023/09/27 01:32:05;;;;;;;8.07;4.40;;;;;;;17.80;86.05;94945.34;5171926;27;20217;-43
2023/09/27 01:34:32;;;;;;;11.43;4.60;;;;;;;17.81;86.41;94953.91;5172019;27;20655;-44
2023/09/27 01:36:59;;;;;;;11.73;4.97;;;;;;;17.77;86.64;94956.03;5156176;27;20180;-43
2023/09/27 01:39:26;;;;;;;10.83;4.87;;;;;;;17.71;86.88;94953.31;5151154;27;20687;-45
2023/09/27 01:41:55;;;;;;;9.37;4.80;;;;;;;17.68;87.06;94956.25;5150752;27;20195;-43
2023/09/27 01:44:22;;;;;;;9.43;4.00;;;;;;;17.66;87.12;94955.59;5154687;27;20175;-44
2023/09/27 01:46:49;;;;;;;10.27;4.57;;;;;;;17.65;87.05;94959.97;5171559;27;20639;-44
2023/09/27 01:49:16;;;;;;;9.87;4.53;;;;;;;17.61;87.13;94952.75;5171220;27;20580;-44
2023/09/27 01:51:43;;;;;;;6.47;4.10;;;;;;;17.64;86.70;94947.22;5171963;27;20179;-44
2023/09/27 01:54:10;;;;;;;10.07;4.57;;;;;;;17.64;86.74;94953.22;5171408;27;20602;-43
2023/09/27 01:56:36;;;;;;;10.93;4.70;;;;;;;17.62;86.61;94955.19;5170683;27;20183;-44
2023/09/27 01:59:04;;;;;;;12.77;4.30;;;;;;;17.63;86.54;94955.97;5171552;27;20267;-43
2023/09/27 02:01:31;;;;;;;6.47;4.20;;;;;;;17.56;86.76;94941.13;5171693;27;20201;-45
2023/09/27 02:03:58;;;;;;;8.43;4.37;;;;;;;17.61;86.57;94947.56;5169266;27;20183;-44
2023/09/27 02:06:25;;;;;;;12.30;4.63;;;;;;;17.59;86.57;94946.97;5150866;27;20188;-45
2023/09/27 02:08:51;;;;;;;6.53;4.03;;;;;;;17.56;86.82;94954.06;5150318;27;20211;-45
2023/09/27 02:11:19;;;;;;;10.67;4.83;;;;;;;17.50;87.02;94944.44;5161124;27;20690;-46
2023/09/27 02:13:47;;;;;;;9.33;4.40;;;;;;;17.49;87.06;94947.19;5171618;27;20247;-45
2023/09/27 02:16:15;;;;;;;9.17;5.33;;;;;;;17.43;87.20;94947.88;5169296;27;20229;-45
2023/09/27 02:18:42;;;;;;;20.10;5.23;;;;;;;17.41;87.20;94955.81;5152191;27;20183;-45
2023/09/27 02:21:09;;;;;;;14.07;4.23;;;;;;;17.39;87.05;94950.00;5171646;27;20180;-45
2023/09/27 02:23:36;;;;;;;5.40;3.87;;;;;;;17.42;86.83;94947.09;5171509;27;20203;-43
2023/09/27 02:26:03;;;;;;;10.63;4.13;;;;;;;17.45;86.82;94949.31;5171178;27;20335;-45
2023/09/27 02:28:30;;;;;;;9.33;4.67;;;;;;;17.43;86.64;94953.06;5171799;27;20616;-44
2023/09/27 02:30:58;;;;;;;10.80;4.70;;;;;;;17.42;87.07;94951.44;5171119;27;20218;-46
2023/09/27 02:33:27;;;;;;;9.23;4.53;;;;;;;17.43;86.96;94961.59;5170611;27;20179;-45
2023/09/27 02:35:54;;;;;;;11.33;5.10;;;;;;;17.38;87.33;94951.00;5169537;27;20184;-44
2023/09/27 02:38:21;;;;;;;8.77;4.87;;;;;;;17.15;87.38;94919.19;5166404;27;20175;-44
2023/09/27 02:40:48;;;;;;;8.57;4.73;;;;;;;17.35;87.65;94956.50;5170323;27;20537;-46
2023/09/27 02:43:15;;;;;;;13.93;4.47;;;;;;;17.33;87.84;94952.50;5171229;27;20198;-44
2023/09/27 02:45:42;;;;;;;11.50;4.93;;;;;;;17.35;87.51;94959.09;5168950;27;21908;-45
2023/09/27 02:48:09;;;;;;;8.67;3.77;;;;;;;17.38;87.07;94956.16;5158233;27;20268;-45
2023/09/27 02:50:37;;;;;;;11.30;3.97;;;;;;;17.36;87.01;94970.22;5150031;27;20219;-45
2023/09/27 02:53:04;;;;;;;6.10;3.73;;;;;;;17.32;86.93;94969.78;5149847;27;20278;-44
2023/09/27 02:55:31;;;;;;;8.43;4.40;;;;;;;17.34;86.53;94970.41;5149979;27;20881;-44
2023/09/27 02:57:59;;;;;;;14.93;4.50;;;;;;;17.36;86.32;94973.63;5150123;27;20180;-45
2023/09/27 03:00:26;;;;;;;13.17;4.67;;;;;;;17.36;86.23;94970.22;5151023;27;20632;-44
2023/09/27 03:02:53;;;;;;;8.90;4.90;;;;;;;17.34;86.25;94973.00;5162575;27;20682;-45
2023/09/27 03:05:20;;;;;;;7.60;4.40;;;;;;;17.34;86.06;94973.00;5170795;27;20183;-44
2023/09/27 03:07:48;;;;;;;9.00;3.90;;;;;;;17.34;85.84;94969.59;5171554;27;20233;-45
2023/09/27 03:10:15;;;;;;;7.10;4.30;;;;;;;17.36;85.35;94972.81;5174513;27;20222;-46
2023/09/27 03:12:43;;;;;;;8.20;4.60;;;;;;;17.37;85.09;94979.59;5167636;27;20195;-44
2023/09/27 03:15:11;;;;;;;8.60;4.17;;;;;;;17.34;85.15;94979.94;5153831;27;20566;-45
2023/09/27 03:17:38;;;;;;;7.43;4.30;;;;;;;17.35;85.20;94982.34;5153332;27;20594;-44
2023/09/27 03:20:09;;;;;;;9.57;4.23;;;;;;;17.35;85.28;94984.13;5153438;27;20191;-46
2023/09/27 03:22:36;;;;;;;10.83;4.37;;;;;;;17.34;85.08;94977.34;5154163;27;20206;-46
2023/09/27 03:25:05;;;;;;;6.60;4.50;;;;;;;17.35;84.70;94976.38;5171877;27;20630;-46
2023/09/27 03:27:32;;;;;;;7.40;4.33;;;;;;;17.34;84.81;94974.78;5173997;27;20229;-45
2023/09/27 03:29:59;;;;;;;20.27;4.60;;;;;;;17.32;84.68;94977.53;5171406;27;20199;-45
2023/09/27 03:32:25;;;;;;;6.63;4.33;;;;;;;17.33;84.43;94978.34;5154098;27;20279;-45
2023/09/27 03:34:52;;;;;;;15.13;4.87;;;;;;;17.29;84.50;94978.69;5164475;27;20174;-46
2023/09/27 03:37:20;;;;;;;12.40;4.50;;;;;;;17.28;84.63;94976.28;5173980;27;20187;-46
2023/09/27 03:39:48;;;;;;;15.17;4.83;;;;;;;17.28;84.67;94986.63;5174134;27;20183;-45
2023/09/27 03:42:16;;;;;;;9.03;4.30;;;;;;;17.29;84.30;94981.25;5173585;27;20194;-45
2023/09/27 03:44:43;;;;;;;7.53;4.57;;;;;;;17.29;84.14;94981.25;5173144;27;20179;-44
2023/09/27 03:47:11;;;;;;;10.40;4.87;;;;;;;17.28;83.96;94986.63;5175608;27;20195;-46
2023/09/27 03:49:38;;;;;;;9.43;4.47;;;;;;;17.26;84.11;94988.56;5174215;27;20227;-45
2023/09/27 03:52:05;;;;;;;11.77;4.40;;;;;;;17.23;84.21;94987.13;5167330;27;20536;-44
2023/09/27 03:54:32;;;;;;;7.87;4.10;;;;;;;17.20;84.41;94994.41;5152898;27;20749;-45
2023/09/27 03:56:59;;;;;;;7.60;4.27;;;;;;;17.20;84.18;94995.22;5152841;27;20656;-45
2023/09/27 03:59:27;;;;;;;5.10;3.53;;;;;;;17.21;83.87;94996.81;5153719;27;20267;-44
2023/09/27 04:01:54;;;;;;;10.13;4.57;;;;;;;17.19;83.96;94996.19;5152680;27;20180;-46
2023/09/27 04:04:20;;;;;;;10.07;4.73;;;;;;;17.17;83.73;94992.97;5152727;27;20708;-42
2023/09/27 04:06:49;;;;;;;9.07;4.37;;;;;;;17.13;83.60;94996.06;5152470;27;20704;-45
2023/09/27 04:09:16;;;;;;;6.97;3.87;;;;;;;17.17;83.30;95005.09;5153010;27;20188;-44
2023/09/27 04:11:43;;;;;;;6.10;4.07;;;;;;;17.19;83.24;94998.00;5161199;27;20206;-44
2023/09/27 04:14:11;;;;;;;9.43;4.13;;;;;;;17.18;83.23;94996.34;5173567;27;20639;-47
2023/09/27 04:16:39;;;;;;;11.47;4.63;;;;;;;17.18;82.92;94994.56;5173006;27;20222;-45
2023/09/27 04:19:06;;;;;;;7.57;4.60;;;;;;;17.20;82.94;94999.59;5168763;27;20236;-44
2023/09/27 04:21:33;;;;;;;9.57;5.37;;;;;;;17.20;82.96;94997.00;5172659;27;20187;-45
2023/09/27 04:24:03;;;;;;;10.37;5.20;;;;;;;16.68;82.73;94917.50;5173582;27;20187;-44
2023/09/27 04:26:30;;;;;;;7.83;5.27;;;;;;;17.19;82.75;95001.38;5166002;27;20264;-45
2023/09/27 04:28:57;;;;;;;8.47;5.13;;;;;;;17.21;83.01;95002.00;5152166;27;20203;-46
2023/09/27 04:31:24;;;;;;;17.13;5.13;;;;;;;17.20;83.14;95005.56;5152221;27;20214;-44
2023/09/27 04:33:52;;;;;;;11.57;5.13;;;;;;;17.22;83.11;94998.41;5151932;27;20572;-45
2023/09/27 04:36:19;;;;;;;19.57;5.17;;;;;;;17.20;83.23;94997.81;5151992;27;20195;-46
2023/09/27 04:38:46;;;;;;;17.73;5.13;;;;;;;16.56;83.14;94899.78;5152184;27;20187;-46
2023/09/27 04:41:14;;;;;;;11.83;5.53;;;;;;;17.28;83.17;95005.50;5152271;27;20253;-45
2023/09/27 04:43:44;;;;;;;13.50;4.97;;;;;;;17.32;83.30;95011.16;5152257;27;20668;-47
2023/09/27 04:46:12;;;;;;;13.87;5.37;;;;;;;17.28;83.12;95002.94;5153124;27;20583;-45
2023/09/27 04:48:39;;;;;;;15.73;4.60;;;;;;;17.37;82.35;95013.22;5152279;27;20596;-47
2023/09/27 04:51:07;;;;;;;8.87;4.80;;;;;;;17.39;81.72;95009.47;5152100;27;20614;-46
2023/09/27 04:53:37;;;;;;;8.03;4.87;;;;;;;17.50;81.31;95023.78;5157969;27;20220;-46
2023/09/27 04:56:05;;;;;;;9.00;4.83;;;;;;;17.56;80.60;95010.16;5172330;27;20243;-45
2023/09/27 04:58:32;;;;;;;9.50;5.03;;;;;;;17.71;80.20;95013.63;5172846;27;20191;-44
2023/09/27 05:00:58;;;;;;;10.50;4.77;;;;;;;17.63;79.41;94994.78;5154671;27;20191;-45
2023/09/27 05:03:26;;;;;;;10.43;4.23;;;;;;;18.00;78.46;95022.47;5151576;27;20196;-45
2023/09/27 05:05:53;;;;;;;8.73;4.23;;;;;;;18.10;77.88;95023.03;5151646;27;20195;-45
2023/09/27 05:08:21;;;;;;;9.97;4.40;;;;;;;18.22;77.72;95026.81;5151628;27;20275;-47
2023/09/27 05:10:47;;;;;;;10.77;4.20;;;;;;;18.37;77.05;95019.03;5151882;27;20271;-46
2023/09/27 05:13:14;;;;;;;10.57;4.87;;;;;;;18.55;76.70;95026.47;5151643;27;20259;-46
2023/09/27 05:15:41;;;;;;;11.30;5.43;;;;;;;18.68;76.17;95029.22;5151960;27;20184;-46
2023/09/27 05:18:08;;;;;;;12.10;4.67;;;;;;;18.82;75.56;95022.44;5151248;27;20283;-45
2023/09/27 05:20:36;;;;;;;12.03;4.93;;;;;;;18.97;75.03;95019.88;5152096;27;20187;-48
2023/09/27 05:23:03;;;;;;;9.23;4.30;;;;;;;19.14;74.27;95023.06;5151446;27;20203;-47
2023/09/27 05:25:32;;;;;;;5.87;4.60;;;;;;;19.23;74.00;95019.38;5151372;27;20183;-45
2023/09/27 05:27:59;;;;;;;10.93;4.63;;;;;;;19.25;73.65;95031.13;5150924;27;20219;-47
2023/09/27 05:30:25;;;;;;;11.93;4.67;;;;;;;19.33;72.94;95022.44;5151038;27;20263;-47
2023/09/27 05:32:53;;;;;;;7.55;4.88;;;;;;;19.36;73.08;95023.88;5151431;27;20657;-45
2023/09/27 05:35:20;;;;;;;11.85;5.47;;;;;;;19.40;72.97;95027.72;5151409;27;20214;-46
2023/09/27 05:37:47;;;;;;;6.57;4.68;;;;;;;19.58;73.22;95028.09;5151659;27;20175;-45
2023/09/27 05:40:14;;;;;;;11.57;4.55;;;;;;;19.73;73.29;95033.25;5151387;27;20316;-47
2023/09/27 05:42:43;;;;;;;13.03;5.03;;;;;;;19.88;72.34;95025.41;5151430;27;20591;-44
2023/09/27 05:45:11;;;;;;;8.85;4.78;;;;;;;19.97;71.62;95035.47;5151202;27;20664;-45
2023/09/27 05:47:39;;;;;;;10.50;4.50;;;;;;;20.14;70.85;95022.22;5151583;27;20191;-43
2023/09/27 05:50:08;;;;;;;11.40;5.22;;;;;;;20.34;70.32;95030.16;5151112;27;20187;-46
2023/09/27 05:52:35;;;;;;;9.10;4.43;;;;;;;20.54;69.51;95034.50;5145921;27;20215;-45
2023/09/27 05:55:02;;;;;;;10.38;4.68;;;;;;;20.73;67.81;95027.84;5143344;27;20194;-45
2023/09/27 05:57:29;;;;;;;11.40;4.40;;;;;;;20.87;67.93;95033.91;5150950;27;20188;-45
2023/09/27 05:59:58;;;;;;;8.93;4.57;;;;;;;21.03;67.37;95033.56;5150682;27;20183;-44
2023/09/27 06:02:30;;;;;;;10.43;4.30;;;;;;;21.27;66.48;95036.66;5151203;27;20271;-46
2023/09/27 06:04:58;;;;;;;9.52;3.65;;;;;;;21.57;65.89;95039.75;5150699;27;20187;-45
2023/09/27 06:07:25;;;;;;;13.90;5.50;;;;;;;21.81;65.19;95037.63;5151052;27;20184;-46
2023/09/27 06:09:52;;;;;;;10.77;4.50;;;;;;;21.97;63.75;95039.81;5150945;27;20180;-44
2023/09/27 06:12:19;;;;;;;11.90;3.90;;;;;;;22.08;63.35;95043.63;5150789;27;20219;-45
2023/09/27 06:14:46;;;;;;;11.77;4.93;;;;;;;22.26;62.63;95039.44;5150832;27;20196;-44
2023/09/27 06:17:16;;;;;;;11.40;4.63;;;;;;;22.39;61.29;95037.84;5149986;27;20188;-46
2023/09/27 06:19:42;;;;;;;6.13;4.43;;;;;;;22.44;61.70;95036.22;5154162;27;20558;-53
2023/09/27 06:22:10;;;;;;;5.72;3.58;;;;;;;22.63;61.54;95036.41;5170851;27;20187;-46
2023/09/27 06:24:37;;;;;;;6.50;4.55;;;;;;;22.87;60.40;95040.16;5171648;27;20191;-45
2023/09/27 06:27:04;;;;;;;8.88;4.70;;;;;;;23.22;60.08;95035.44;5170904;27;20227;-44
2023/09/27 06:29:31;;;;;;;9.30;4.07;;;;;;;23.54;58.73;95044.91;5170275;27;20194;-44
2023/09/27 06:31:57;;;;;;;10.48;3.95;;;;;;;23.84;57.88;95048.81;5171112;27;20209;-43
2023/09/27 06:34:26;;;;;;;10.45;4.25;;;;;;;23.81;56.83;95023.09;5171562;27;20271;-45
2023/09/27 06:36:56;;;;;;;19.27;4.00;;;;;;;24.06;56.50;95062.31;5171464;27;20294;-45
2023/09/27 06:39:24;;;;;;;6.93;5.15;;;;;;;24.17;55.96;95054.56;5161382;27;20175;-53
2023/09/27 06:41:52;;;;;;;13.68;4.85;;;;;;;24.31;55.26;95051.84;5150470;27;20195;-47
2023/09/27 06:44:19;;;;;;;16.48;4.15;;;;;;;24.24;54.85;95051.91;5152683;27;20240;-43
2023/09/27 06:46:46;;;;;;;6.03;3.85;;;;;;;24.30;55.28;95048.44;5153182;27;20195;-44
2023/09/27 06:49:13;;;;;;;8.40;3.53;;;;;;;24.55;55.00;95055.50;5153271;27;20215;-46
2023/09/27 06:51:42;;;;;;;14.02;4.07;;;;;;;24.66;53.23;95052.97;5153001;27;20606;-44
2023/09/27 06:54:08;;;;;;;9.02;3.92;;;;;;;24.69;53.68;95057.75;5153449;27;20202;-44
2023/09/27 06:56:35;;;;;;;14.18;3.78;;;;;;;24.85;53.78;95056.41;5153215;27;20196;-44
2023/09/27 06:59:02;;;;;;;10.65;4.00;;;;;;;25.15;52.33;95058.31;5153808;27;20549;-44
2023/09/27 07:01:30;;;;;;;10.02;4.20;;;;;;;25.35;52.42;95058.91;5153331;27;20207;-47
2023/09/27 07:03:57;;;;;;;8.20;3.72;;;;;;;25.58;51.48;95065.25;5152934;27;20616;-45
2023/09/27 07:06:24;;;;;;;10.90;3.80;;;;;;;25.76;50.78;95055.53;5152884;27;20660;-46
2023/09/27 07:08:57;;;;;;;11.93;4.05;;;;;;;25.98;50.63;95066.31;5152796;27;20183;-44
2023/09/27 07:11:24;;;;;;;11.65;4.88;;;;;;;26.18;50.43;95073.09;5152867;27;20222;-45
2023/09/27 07:13:53;;;;;;;6.97;3.70;;;;;;;26.38;49.69;95076.19;5153038;27;20215;-44
2023/09/27 07:16:21;;;;;;;9.23;4.15;;;;;;;26.57;49.61;95070.88;5152884;27;20198;-45
2023/09/27 07:18:49;;;;;;;7.78;3.80;;;;;;;26.66;48.68;95069.50;5154204;27;20214;-44
2023/09/27 07:21:24;;;;;;;5.57;3.67;;;;;;;26.64;48.44;95077.63;5153620;27;20180;-45
2023/09/27 07:23:53;;;;;;;8.65;4.25;;;;;;;26.64;49.04;95075.00;5152642;27;20194;-44
2023/09/27 07:26:21;;;;;;;11.10;4.57;;;;;;;26.79;47.72;95066.66;5152485;27;20234;-46
2023/09/27 07:28:47;;;;;;;10.55;4.32;;;;;;;26.75;48.32;95040.06;5153024;27;20203;-46
2023/09/27 07:31:16;;;;;;;7.18;3.80;;;;;;;26.98;48.06;95065.47;5152400;27;20646;-44
2023/09/27 07:33:45;;;;;;;8.05;4.55;;;;;;;27.01;47.42;95067.63;5152461;27;20186;-45
2023/09/27 07:36:12;;;;;;;11.63;3.83;;;;;;;27.06;47.07;95061.69;5152661;27;20176;-44
2023/09/27 07:38:39;;;;;;;11.32;4.05;;;;;;;26.77;46.95;95009.16;5152644;27;20274;-45
2023/09/27 07:41:09;;;;;;;7.20;3.65;;;;;;;27.22;46.59;95071.50;5152454;27;20202;-44
2023/09/27 07:43:36;;;;;;;7.53;4.15;;;;;;;27.29;47.04;95071.41;5133502;27;20274;-46
2023/09/27 07:46:06;;;;;;;7.57;4.38;;;;;;;27.44;46.18;95069.06;5152821;27;20191;-45
2023/09/27 07:48:35;;;;;;;6.15;3.47;;;;;;;27.50;46.25;95064.69;5152226;27;20211;-45
2023/09/27 07:51:02;;;;;;;10.35;3.85;;;;;;;27.44;45.45;95073.50;5149596;27;20191;-44
2023/09/27 07:53:29;;;;;;;9.10;3.72;;;;;;;27.36;45.34;95073.88;5151815;27;20548;-44
2023/09/27 07:55:58;;;;;;;10.90;3.92;;;;;;;27.25;46.49;95063.19;5151672;27;20720;-46
2023/09/27 07:58:26;;;;;;;4.65;3.35;;;;;;;27.31;46.46;95064.06;5152559;27;20659;-43
2023/09/27 08:00:53;;;;;;;10.57;3.58;;;;;;;27.27;46.17;95062.94;5152036;27;20203;-45
2023/09/27 08:03:21;;;;;;;10.50;4.05;;;;;;;27.37;46.21;95067.59;5152061;27;20183;-45
2023/09/27 08:05:49;;;;;;;10.05;3.92;;;;;;;27.33;46.03;95058.56;5152168;27;20180;-46
2023/09/27 08:08:16;;;;;;;8.77;3.28;;;;;;;27.25;46.07;95057.94;5152055;27;20206;-45
2023/09/27 08:10:45;;;;;;;4.82;2.90;;;;;;;27.15;45.87;95062.97;5151819;27;20206;-44
2023/09/27 08:13:13;;;;;;;11.35;4.15;;;;;;;26.99;45.43;95061.03;5151596;27;20299;-45
2023/09/27 08:15:42;;;;;;;13.95;3.90;;;;;;;26.75;46.38;95061.06;5151801;27;20196;-45
2023/09/27 08:18:09;;;;;;;7.80;3.60;;;;;;;26.68;46.06;95049.06;5151713;27;20191;-44
2023/09/27 08:20:36;;;;;;;5.05;3.60;;;;;;;26.45;46.38;95044.63;5151122;27;20199;-45
2023/09/27 08:23:04;;;;;;;12.20;4.22;;;;;;;26.55;46.24;95055.34;5151799;27;20216;-44
2023/09/27 08:25:31;;;;;;;14.20;3.28;;;;;;;26.37;46.44;95065.91;5151509;27;20191;-45
2023/09/27 08:27:58;;;;;;;10.88;4.25;;;;;;;26.19;47.02;95057.13;5152176;27;20211;-45
2023/09/27 08:30:25;;;;;;;9.45;3.95;;;;;;;26.18;46.63;95057.34;5151016;27;20266;-46
2023/09/27 08:32:53;;;;;;;9.90;4.18;;;;;;;26.18;46.44;95057.34;5151537;27;20234;-44
2023/09/27 08:35:20;;;;;;;17.52;3.70;;;;;;;25.89;47.12;95051.94;5151155;27;20198;-44
2023/09/27 08:37:47;;;;;;;10.98;3.38;;;;;;;25.81;47.70;95054.88;5151438;27;20194;-44
2023/09/27 08:40:15;;;;;;;9.80;3.83;;;;;;;25.90;46.81;95056.16;5151098;27;20648;-44
2023/09/27 08:42:43;;;;;;;10.93;3.90;;;;;;;25.91;46.29;95052.53;5151926;27;20558;-44
2023/09/27 08:45:13;;;;;;;16.88;3.90;;;;;;;26.00;46.83;95059.03;5151310;27;20199;-44
2023/09/27 08:47:41;;;;;;;11.73;4.05;;;;;;;25.98;47.32;95058.44;5151078;27;20275;-45
2023/09/27 08:50:13;;;;;;;5.93;3.88;;;;;;;25.71;48.04;95065.88;5151216;27;20278;-45
2023/09/27 08:52:45;;;;;;;10.15;4.25;;;;;;;25.47;48.30;95064.97;5150798;27;20215;-44
2023/09/27 08:55:12;;;;;;;10.23;4.45;;;;;;;25.28;49.01;95051.09;5151378;27;20286;-44
2023/09/27 08:57:44;;;;;;;8.57;3.80;;;;;;;25.40;49.45;95058.22;5151161;27;20320;-43
2023/09/27 09:00:13;;;;;;;8.30;3.65;;;;;;;25.48;48.98;95063.16;5150812;27;20655;-44
2023/09/27 09:02:44;;;;;;;12.82;4.03;;;;;;;25.38;49.48;95057.63;5150908;27;20196;-45
2023/09/27 09:05:13;;;;;;;8.68;4.15;;;;;;;25.21;49.45;95054.81;5150948;27;20214;-45
2023/09/27 09:07:41;;;;;;;6.65;3.42;;;;;;;25.31;49.44;95054.31;5150458;27;20184;-43
2023/09/27 09:10:13;;;;;;;10.63;4.65;;;;;;;25.39;48.14;95046.97;5151031;27;20274;-46
2023/09/27 09:12:40;;;;;;;14.25;4.35;;;;;;;25.19;48.93;95039.34;5150041;27;20219;-46
2023/09/27 09:15:08;;;;;;;13.52;4.22;;;;;;;25.03;48.90;95043.31;5150666;27;20191;-45
2023/09/27 09:17:36;;;;;;;11.43;4.65;;;;;;;24.82;48.96;95012.34;5150394;27;20567;-45
2023/09/27 09:20:15;;;;;;;8.05;3.92;;;;;;;24.70;49.53;95033.22;5150691;27;20194;-46
2023/09/27 09:22:46;;;;;;;10.32;3.70;;;;;;;24.84;49.49;95054.81;5148710;27;20678;-47
2023/09/27 09:25:13;;;;;;;7.35;3.88;;;;;;;24.72;49.38;95033.00;5150151;27;20180;-45
2023/09/27 09:27:41;;;;;;;5.65;3.05;;;;;;;24.86;49.74;95034.44;5150018;27;20358;-46
2023/09/27 09:30:11;;;;;;;11.55;3.33;;;;;;;24.78;49.61;95039.97;5150326;27;20194;-45
2023/09/27 09:32:50;;;;;;;7.25;4.05;;;;;;;24.78;49.32;95032.94;5149771;27;20298;-47
2023/09/27 09:35:30;;;;;;;11.82;3.92;;;;;;;24.73;49.16;95035.38;5148290;27;20275;-45
2023/09/27 09:38:01;;;;;;;7.53;3.75;;;;;;;24.72;49.35;95044.25;5150053;27;20198;-45
2023/09/27 09:40:29;;;;;;;5.80;3.75;;;;;;;24.74;49.67;95030.94;5149914;27;20207;-44
2023/09/27 09:42:59;;;;;;;9.05;3.53;;;;;;;24.73;49.51;95026.75;5149734;27;20660;-44
2023/09/27 09:45:28;;;;;;;7.35;3.58;;;;;;;24.71;49.32;95013.09;5150100;27;20210;-45
2023/09/27 09:47:56;;;;;;;5.30;3.38;;;;;;;24.67;49.10;95017.97;5150026;27;20453;-45
2023/09/27 09:50:23;;;;;;;6.80;3.35;;;;;;;24.52;49.68;95030.56;5150177;27;20215;-44
2023/09/27 09:52:57;;;;;;;12.57;4.18;;;;;;;24.46;49.54;95034.06;5149769;27;20608;-45
2023/09/27 09:55:26;;;;;;;7.50;3.65;;;;;;;24.53;49.60;95019.91;5150068;27;20675;-45
2023/09/27 09:57:59;;;;;;;7.90;3.55;;;;;;;24.56;49.43;95023.88;5149986;27;20203;-45
2023/09/27 10:00:27;;;;;;;7.70;3.60;;;;;;;24.75;49.55;95014.25;5149895;27;20215;-46
2023/09/27 10:03:02;;;;;;;8.98;3.88;;;;;;;24.99;48.35;95025.66;5150023;27;20226;-43
2023/09/27 10:05:37;;;;;;;7.82;3.42;;;;;;;25.01;48.76;95007.94;5148530;27;20231;-45
2023/09/27 10:08:05;;;;;;;9.05;4.20;;;;;;;25.05;48.43;95014.31;5150008;27;20275;-45
2023/09/27 10:10:34;;;;;;;13.93;4.45;;;;;;;25.10;48.89;95009.25;5150209;27;20266;-46
2023/09/27 10:13:05;;;;;;;9.68;4.40;;;;;;;25.15;47.87;95003.34;5149725;27;20319;-46
2023/09/27 10:15:33;;;;;;;4.30;3.75;;;;;;;25.14;48.91;95007.78;5148238;27;20222;-44
2023/09/27 10:18:33;;;;;;;11.10;4.22;;;;;;;25.08;49.05;95003.41;5148404;27;20191;-45
2023/09/27 10:21:04;;;;;;;9.40;4.03;;;;;;;25.04;49.09;95002.22;5145573;27;20656;-47
2023/09/27 10:23:36;;;;;;;5.68;4.18;;;;;;;24.99;48.83;95002.09;5153926;27;20268;-46
2023/09/27 10:26:32;;;;;;;12.02;3.78;;;;;;;24.92;49.11;94999.56;5153730;27;20199;-44
2023/09/27 10:29:13;;;;;;;13.63;4.57;;;;;;;24.87;49.71;94988.97;5047835;28;20641;-45
2023/09/27 10:32:12;;;;;;;7.93;4.28;;;;;;;24.92;49.36;94989.09;5047221;28;20191;-45
2023/09/27 10:34:40;;;;;;;8.38;3.50;;;;;;;24.76;49.38;94958.31;4932321;29;20202;-47
2023/09/27 10:37:07;;;;;;;7.25;4.07;;;;;;;25.03;49.65;94987.56;4932432;29;20607;-45
2023/09/27 10:39:34;;;;;;;9.77;3.80;;;;;;;24.98;49.67;94982.19;4931505;29;20218;-46
2023/09/27 10:42:02;;;;;;;9.30;3.83;;;;;;;24.95;49.60;94978.19;4931186;29;20199;-44
2023/09/27 10:44:30;;;;;;;10.07;4.18;;;;;;;24.92;49.83;94978.63;4931755;29;20191;-44
2023/09/27 10:46:58;;;;;;;5.60;3.78;;;;;;;25.07;50.08;94975.63;4933224;29;20211;-46
2023/09/27 10:49:26;;;;;;;7.90;3.72;;;;;;;24.96;49.84;94947.59;4931109;29;20191;-47
2023/09/27 10:51:54;;;;;;;4.93;3.25;;;;;;;25.21;49.36;94978.91;4928245;29;20583;-46
2023/09/27 10:54:24;;;;;;;5.82;3.72;;;;;;;25.10;49.50;94980.47;4932332;29;20223;-46
2023/09/27 10:56:55;;;;;;;5.68;3.35;;;;;;;25.00;49.83;94980.97;4932606;29;20206;-45
2023/09/27 10:59:27;;;;;;;7.72;4.00;;;;;;;24.93;50.15;94971.59;4931663;29;20206;-46
2023/09/27 11:01:55;;;;;;;10.25;3.40;;;;;;;24.81;50.35;94976.75;4932989;29;20750;-44
2023/09/27 11:04:23;;;;;;;8.05;3.47;;;;;;;24.75;50.88;94959.31;4931498;29;20211;-44
2023/09/27 11:06:50;;;;;;;6.63;3.38;;;;;;;24.73;50.73;94964.75;5001540;28;20192;-46
2023/09/27 11:09:19;;;;;;;10.27;4.00;;;;;;;24.56;50.92;94960.34;5008543;28;20258;-44
2023/09/27 11:11:47;;;;;;;9.18;3.70;;;;;;;24.53;50.95;94953.72;5079450;27;20195;-45
2023/09/27 11:14:24;;;;;;;6.30;4.03;;;;;;;24.43;51.53;94950.81;5153079;27;20397;-44
2023/09/27 11:16:53;;;;;;;11.57;4.20;;;;;;;24.44;51.40;94950.59;5155756;27;20642;-46
2023/09/27 11:19:28;;;;;;;8.55;3.30;;;;;;;24.42;52.35;94944.00;5152607;27;20240;-44
2023/09/27 11:21:54;;;;;;;6.90;3.25;;;;;;;24.44;51.99;94937.53;5153189;27;20210;-45
2023/09/27 11:24:21;;;;;;;8.60;4.18;;;;;;;24.57;51.79;94947.06;5152413;27;20199;-45
2023/09/27 11:26:48;;;;;;;8.93;4.03;;;;;;;24.60;51.57;94954.44;5152723;27;20231;-45
2023/09/27 11:29:15;;;;;;;9.68;3.90;;;;;;;24.52;51.71;94939.03;5152331;27;20195;-46
2023/09/27 11:31:42;;;;;;;6.82;3.75;;;;;;;24.31;51.79;94949.91;5152767;27;20187;-45
2023/09/27 11:34:14;;;;;;;5.68;3.63;;;;;;;24.23;51.84;94951.00;5152816;27;20219;-44